Time;durP1;ratioP1;P1;durP2;ratioP2;P2;SDS_P1;SDS_P2;PMS_P1;PMS_P2;Temp;Humidity;BMP_temperature;BMP_pressure;BME280_temperature;BME280_humidity;BME280_pressure;Samples;Min_cycle;Max_cycle;Signal;HPM_P1;HPM_P2
2022/04/06 00:00:11;;;;;;;7.28;4.25;;;10.70;99.90;;;;;;5054480;28;20465;-77
2022/04/06 00:02:40;;;;;;;7.28;3.83;;;10.70;99.90;;;;;;5073137;28;20017;-77
2022/04/06 00:05:10;;;;;;;8.20;4.22;;;10.70;99.90;;;;;;5054734;28;20050;-78
2022/04/06 00:07:36;;;;;;;6.30;4.25;;;10.60;99.90;;;;;;5072682;28;20107;-78
2022/04/06 00:10:04;;;;;;;5.47;3.75;;;10.70;99.90;;;;;;5072368;28;20032;-78
2022/04/06 00:12:30;;;;;;;7.35;4.75;;;10.70;99.90;;;;;;5054879;28;20013;-77
2022/04/06 00:14:55;;;;;;;8.07;4.38;;;10.60;99.90;;;;;;5072711;28;20040;-78
2022/04/06 00:17:21;;;;;;;6.20;4.03;;;10.70;99.90;;;;;;5054331;28;20063;-77
2022/04/06 00:19:47;;;;;;;7.70;4.25;;;10.60;99.90;;;;;;5054742;28;20062;-77
2022/04/06 00:22:13;;;;;;;6.22;4.22;;;10.70;99.90;;;;;;5053974;28;20020;-78
2022/04/06 00:24:39;;;;;;;9.02;4.35;;;10.70;99.90;;;;;;5054884;28;20028;-77
2022/04/06 00:27:05;;;;;;;7.22;3.85;;;10.70;99.90;;;;;;5072261;28;20021;-78
2022/04/06 00:29:30;;;;;;;7.55;4.28;;;10.70;99.90;;;;;;5054386;28;20024;-77
2022/04/06 00:31:56;;;;;;;6.47;3.95;;;10.60;99.90;;;;;;5054647;28;20025;-77
2022/04/06 00:35:28;;;;;;;5.55;3.80;;;10.60;99.90;;;;;;5071530;28;20100;-77
2022/04/06 00:37:07;;;;;;;5.28;3.80;;;10.70;99.90;;;;;;5071464;28;20020;-78
2022/04/06 00:39:33;;;;;;;6.15;3.83;;;10.70;99.90;;;;;;5072881;28;20031;-77
2022/04/06 00:41:59;;;;;;;6.53;3.97;;;10.70;99.90;;;;;;5072562;28;20103;-78
2022/04/06 00:44:26;;;;;;;6.47;3.85;;;10.70;99.90;;;;;;5054244;28;20025;-78
2022/04/06 00:46:52;;;;;;;5.28;3.92;;;10.70;99.90;;;;;;5072680;28;20027;-77
2022/04/06 00:49:18;;;;;;;5.93;4.43;;;10.60;99.90;;;;;;5054504;28;20057;-78
2022/04/06 00:51:46;;;;;;;5.22;3.70;;;10.70;99.90;;;;;;5074640;28;20103;-78
2022/04/06 00:54:17;;;;;;;5.65;3.75;;;10.70;99.90;;;;;;5057398;28;20059;-78
2022/04/06 00:56:44;;;;;;;6.00;3.80;;;10.70;99.90;;;;;;5058268;28;20039;-77
2022/04/06 00:59:10;;;;;;;5.60;4.05;;;10.70;99.90;;;;;;5057622;28;20070;-78
2022/04/06 01:01:36;;;;;;;5.20;3.90;;;10.60;99.90;;;;;;5058300;28;20021;-77
2022/04/06 01:04:02;;;;;;;6.10;3.83;;;10.70;99.90;;;;;;5076019;28;20021;-77
2022/04/06 01:06:27;;;;;;;4.80;3.47;;;10.60;99.90;;;;;;5057631;28;20583;-77
2022/04/06 01:08:53;;;;;;;6.53;3.80;;;10.70;99.90;;;;;;5075860;28;20024;-77
2022/04/06 01:11:20;;;;;;;6.15;3.72;;;10.70;99.90;;;;;;5057398;28;20028;-77
2022/04/06 01:13:47;;;;;;;5.40;3.95;;;10.60;99.90;;;;;;5075670;28;20021;-77
2022/04/06 01:16:13;;;;;;;5.35;3.40;;;10.70;99.90;;;;;;5075092;28;20115;-78
2022/04/06 01:18:40;;;;;;;5.53;3.63;;;10.70;99.90;;;;;;5057809;28;20028;-77
2022/04/06 01:21:07;;;;;;;6.00;3.70;;;10.70;99.90;;;;;;5075138;28;20103;-78
2022/04/06 01:23:32;;;;;;;5.70;3.67;;;10.70;99.90;;;;;;5053988;28;20386;-77
2022/04/06 01:25:58;;;;;;;8.75;4.05;;;10.70;99.90;;;;;;5054453;28;20021;-77
2022/04/06 01:28:24;;;;;;;8.05;3.97;;;10.70;99.90;;;;;;5055172;28;20067;-78
2022/04/06 01:30:50;;;;;;;7.60;3.90;;;10.70;99.90;;;;;;5054335;28;20021;-78
2022/04/06 01:33:15;;;;;;;5.70;3.35;;;10.70;99.90;;;;;;5054820;28;20028;-78
2022/04/06 01:35:42;;;;;;;8.82;4.00;;;10.70;99.90;;;;;;5054145;28;20053;-77
2022/04/06 01:38:08;;;;;;;5.32;3.58;;;10.70;99.90;;;;;;5054799;28;20060;-78
2022/04/06 01:40:34;;;;;;;6.25;3.72;;;10.70;99.90;;;;;;5055036;28;20458;-78
2022/04/06 01:43:00;;;;;;;6.07;3.78;;;10.70;99.90;;;;;;5055125;28;20021;-78
2022/04/06 01:45:26;;;;;;;6.00;3.25;;;10.60;99.90;;;;;;5054728;28;20036;-78
2022/04/06 01:47:51;;;;;;;5.20;3.20;;;10.70;99.90;;;;;;5054218;28;20021;-77
2022/04/06 01:53:03;;;;;;;4.35;2.80;;;10.70;99.90;;;;;;5055401;28;20028;-77
2022/04/06 01:55:29;;;;;;;3.30;2.83;;;10.70;99.90;;;;;;5053577;28;20033;-77
2022/04/06 01:57:54;;;;;;;4.20;3.13;;;10.70;99.90;;;;;;5054168;28;20151;-78
2022/04/06 02:00:20;;;;;;;5.05;3.10;;;10.70;99.90;;;;;;5054015;28;20370;-78
2022/04/06 02:02:49;;;;;;;8.07;3.00;;;10.70;99.90;;;;;;5052850;28;20442;-77
2022/04/06 02:05:16;;;;;;;5.40;3.25;;;10.70;99.90;;;;;;5054655;28;20032;-78
2022/04/06 02:07:46;;;;;;;5.72;3.00;;;10.70;99.90;;;;;;5054024;28;20401;-78
2022/04/06 02:10:12;;;;;;;5.43;3.63;;;10.70;99.90;;;;;;5054703;28;20025;-78
2022/04/06 02:12:40;;;;;;;7.57;3.22;;;10.70;99.90;;;;;;5055364;28;20124;-78
2022/04/06 02:15:11;;;;;;;4.57;3.28;;;10.80;99.90;;;;;;5054930;28;20037;-78
2022/04/06 02:17:37;;;;;;;4.93;3.20;;;10.70;99.90;;;;;;5053919;28;20078;-78
2022/04/06 02:20:04;;;;;;;3.88;2.92;;;10.80;99.90;;;;;;5053571;28;20025;-78
2022/04/06 02:22:29;;;;;;;3.80;3.13;;;10.70;99.90;;;;;;5053038;28;20524;-78
2022/04/06 02:24:55;;;;;;;5.35;3.40;;;10.70;99.90;;;;;;5053949;28;20029;-77
2022/04/06 02:27:21;;;;;;;6.22;3.58;;;10.70;99.90;;;;;;5053046;28;20025;-78
2022/04/06 02:29:48;;;;;;;6.20;3.55;;;10.70;99.90;;;;;;5053564;28;20120;-78
2022/04/06 02:32:13;;;;;;;5.18;3.78;;;10.60;99.90;;;;;;5052822;28;20021;-78
2022/04/06 02:34:39;;;;;;;5.22;3.58;;;10.70;99.90;;;;;;5053091;28;20466;-78
2022/04/06 02:37:06;;;;;;;9.18;4.50;;;10.60;99.90;;;;;;5053292;28;20025;-78
2022/04/06 02:39:32;;;;;;;5.65;3.60;;;10.60;99.90;;;;;;5052750;28;20049;-77
2022/04/06 02:41:57;;;;;;;7.53;3.95;;;10.60;99.90;;;;;;5053363;28;20068;-77
2022/04/06 02:44:23;;;;;;;7.18;3.80;;;10.60;99.90;;;;;;5052749;28;20477;-78
2022/04/06 02:46:49;;;;;;;5.80;3.83;;;10.60;99.90;;;;;;5052904;28;20025;-78
2022/04/06 02:49:15;;;;;;;6.15;3.85;;;10.60;99.90;;;;;;5052043;28;20017;-78
2022/04/06 02:51:41;;;;;;;4.97;3.80;;;10.60;99.90;;;;;;5053128;28;20020;-78
2022/04/06 02:54:07;;;;;;;5.72;4.03;;;10.60;99.90;;;;;;5052723;28;20078;-77
2022/04/06 02:56:33;;;;;;;8.20;4.15;;;10.60;99.90;;;;;;5052379;28;20120;-78
2022/04/06 02:59:01;;;;;;;7.80;4.20;;;10.60;99.90;;;;;;5054274;28;20049;-78
2022/04/06 03:01:27;;;;;;;6.40;4.25;;;10.50;99.90;;;;;;5052262;28;20075;-78
2022/04/06 03:03:53;;;;;;;5.22;3.90;;;10.50;99.90;;;;;;5052772;28;20109;-77
2022/04/06 03:06:18;;;;;;;7.97;3.60;;;10.50;99.90;;;;;;5051928;28;20052;-78
2022/04/06 03:08:44;;;;;;;5.20;3.58;;;10.50;99.90;;;;;;5052289;28;20040;-76
2022/04/06 03:11:10;;;;;;;8.38;3.92;;;10.50;99.90;;;;;;5052417;28;20029;-77
2022/04/06 03:13:36;;;;;;;6.93;3.60;;;10.50;99.90;;;;;;5051853;28;20047;-78
2022/04/06 03:16:02;;;;;;;5.65;3.42;;;10.50;99.90;;;;;;5052146;28;20025;-77
2022/04/06 03:18:27;;;;;;;6.30;3.75;;;10.50;99.90;;;;;;5053160;28;20111;-78
2022/04/06 03:20:53;;;;;;;5.05;3.60;;;10.60;99.90;;;;;;5052219;28;20479;-77
2022/04/06 03:23:19;;;;;;;4.88;3.58;;;10.50;99.90;;;;;;5063420;28;20055;-78
2022/04/06 03:25:44;;;;;;;7.47;4.03;;;10.50;99.90;;;;;;5072862;28;20480;-77
2022/04/06 03:28:11;;;;;;;6.13;3.42;;;10.60;99.90;;;;;;5055534;28;20021;-77
2022/04/06 03:30:37;;;;;;;7.75;3.55;;;10.50;99.90;;;;;;5054859;28;20087;-77
2022/04/06 03:33:03;;;;;;;6.50;3.67;;;10.50;99.90;;;;;;5055395;28;20021;-77
2022/04/06 03:35:29;;;;;;;4.65;3.47;;;10.50;99.90;;;;;;5072546;28;20071;-78
2022/04/06 03:37:54;;;;;;;4.75;3.15;;;10.50;99.90;;;;;;5055138;28;20052;-78
2022/04/06 03:40:20;;;;;;;6.45;3.08;;;10.50;99.90;;;;;;5072762;28;20421;-78
2022/04/06 03:42:46;;;;;;;5.47;3.22;;;10.50;99.90;;;;;;5055296;28;20046;-78
2022/04/06 03:45:12;;;;;;;5.25;3.53;;;10.50;99.90;;;;;;5054997;28;20107;-77
2022/04/06 03:47:41;;;;;;;4.03;3.15;;;10.50;99.90;;;;;;5054973;28;20016;-78
2022/04/06 03:50:07;;;;;;;4.03;2.75;;;10.50;99.90;;;;;;5055008;28;20027;-76
2022/04/06 03:52:33;;;;;;;5.03;3.00;;;10.50;99.90;;;;;;5072484;28;20174;-77
2022/04/06 03:54:59;;;;;;;5.50;3.20;;;10.50;99.90;;;;;;5072803;28;20040;-77
2022/04/06 03:57:25;;;;;;;5.22;3.33;;;10.50;99.90;;;;;;5072339;28;20044;-77
2022/04/06 03:59:51;;;;;;;4.18;2.92;;;10.50;99.90;;;;;;5055392;28;20025;-77
2022/04/06 04:02:17;;;;;;;4.38;2.78;;;10.50;99.90;;;;;;5054738;28;20425;-78
2022/04/06 04:04:43;;;;;;;3.25;2.60;;;10.50;99.90;;;;;;5054953;28;20558;-77
2022/04/06 04:07:09;;;;;;;5.18;2.92;;;10.50;99.90;;;;;;5055240;28;20017;-77
2022/04/06 04:09:35;;;;;;;3.85;2.63;;;10.50;99.90;;;;;;5054401;28;20381;-78
2022/04/06 04:12:02;;;;;;;3.53;2.42;;;10.50;99.90;;;;;;5055098;28;20048;-78
2022/04/06 04:14:29;;;;;;;3.83;2.25;;;10.50;99.90;;;;;;5072312;28;20048;-77
2022/04/06 04:16:55;;;;;;;6.80;2.75;;;10.50;99.90;;;;;;5055068;28;20071;-78
2022/04/06 04:19:21;;;;;;;3.80;2.65;;;10.60;99.90;;;;;;5072341;28;20437;-78
2022/04/06 04:21:46;;;;;;;5.53;2.40;;;10.60;99.90;;;;;;5055004;28;20029;-78
2022/04/06 04:24:12;;;;;;;3.97;2.45;;;10.50;99.90;;;;;;5073020;28;20037;-78
2022/04/06 04:26:38;;;;;;;3.60;1.98;;;10.60;99.90;;;;;;5056350;28;20029;-78
2022/04/06 04:29:04;;;;;;;4.05;2.70;;;10.60;99.90;;;;;;5076674;28;20013;-77
2022/04/06 04:31:30;;;;;;;5.55;2.63;;;10.50;99.90;;;;;;5076023;28;20032;-77
2022/04/06 04:33:56;;;;;;;5.72;3.45;;;10.60;99.90;;;;;;5076277;28;20100;-77
2022/04/06 04:36:21;;;;;;;5.88;2.35;;;10.60;99.90;;;;;;5058015;28;20024;-78
2022/04/06 04:38:48;;;;;;;3.97;2.42;;;10.60;99.90;;;;;;5058562;28;20024;-77
2022/04/06 04:41:13;;;;;;;3.92;2.42;;;10.60;99.90;;;;;;5058620;28;20116;-77
2022/04/06 04:43:39;;;;;;;4.00;2.60;;;10.60;99.90;;;;;;5058259;28;20058;-77
2022/04/06 04:46:05;;;;;;;3.97;2.72;;;10.60;99.90;;;;;;5058233;28;20024;-77
2022/04/06 04:48:31;;;;;;;6.43;2.58;;;10.60;99.90;;;;;;5057926;28;20032;-77
2022/04/06 04:50:57;;;;;;;3.33;2.58;;;10.60;99.90;;;;;;5067962;28;20028;-77
2022/04/06 04:53:23;;;;;;;4.18;2.72;;;10.60;99.90;;;;;;5068716;28;20048;-77
2022/04/06 04:55:49;;;;;;;4.97;2.60;;;10.60;99.90;;;;;;5075435;28;20027;-77
2022/04/06 04:58:15;;;;;;;4.45;2.70;;;10.60;99.90;;;;;;5057823;28;20013;-77
2022/04/06 05:00:40;;;;;;;4.85;2.53;;;10.50;99.90;;;;;;5074866;28;20028;-77
2022/04/06 05:03:07;;;;;;;6.45;2.70;;;10.60;99.90;;;;;;5075347;28;20017;-77
2022/04/06 05:05:33;;;;;;;5.88;3.05;;;10.60;99.90;;;;;;5056771;28;20033;-76
2022/04/06 05:07:59;;;;;;;4.68;2.60;;;10.50;99.90;;;;;;5075567;28;20031;-77
2022/04/06 05:10:25;;;;;;;5.97;2.90;;;10.60;99.90;;;;;;5075456;28;20470;-77
2022/04/06 05:12:52;;;;;;;8.00;2.92;;;10.60;99.90;;;;;;5075739;28;20024;-77
2022/04/06 05:15:19;;;;;;;6.03;2.83;;;10.60;99.90;;;;;;5057093;28;20033;-77
2022/04/06 05:17:45;;;;;;;5.75;3.20;;;10.60;99.90;;;;;;5058128;28;20424;-77
2022/04/06 05:20:11;;;;;;;6.63;3.03;;;10.60;99.90;;;;;;5057923;28;20032;-77
2022/04/06 05:22:37;;;;;;;6.63;3.10;;;10.50;99.90;;;;;;5053765;28;20438;-77
2022/04/06 05:25:07;;;;;;;6.95;3.30;;;10.60;99.90;;;;;;5054493;28;20115;-77
2022/04/06 05:27:43;;;;;;;5.22;3.00;;;10.50;99.90;;;;;;5053679;28;20116;-77
2022/04/06 05:30:10;;;;;;;8.13;4.00;;;10.60;99.90;;;;;;5055732;28;20028;-77
2022/04/06 05:32:36;;;;;;;4.90;3.40;;;10.60;99.90;;;;;;5054042;28;20017;-77
2022/04/06 05:35:02;;;;;;;6.03;3.38;;;10.60;99.90;;;;;;5054354;28;20351;-76
2022/04/06 05:37:27;;;;;;;8.15;3.35;;;10.60;99.90;;;;;;5053096;28;20033;-76
2022/04/06 05:39:53;;;;;;;5.03;3.38;;;10.60;99.90;;;;;;5054275;28;20017;-77
2022/04/06 05:42:18;;;;;;;5.45;3.25;;;10.60;99.90;;;;;;5054107;28;20499;-76
2022/04/06 05:44:44;;;;;;;7.50;3.20;;;10.60;99.90;;;;;;5055130;28;20362;-76
2022/04/06 05:47:10;;;;;;;6.22;3.45;;;10.60;99.90;;;;;;5053879;28;20067;-77
2022/04/06 05:49:35;;;;;;;5.72;3.72;;;10.60;99.90;;;;;;5053441;28;20071;-77
2022/04/06 05:52:01;;;;;;;5.55;3.78;;;10.50;99.90;;;;;;5053956;28;20021;-77
2022/04/06 05:54:26;;;;;;;3.75;2.97;;;10.50;99.90;;;;;;5054623;28;20025;-77
2022/04/06 05:56:52;;;;;;;4.85;3.28;;;10.50;99.90;;;;;;5053784;28;20103;-77
2022/04/06 05:59:18;;;;;;;5.80;3.30;;;10.60;99.90;;;;;;5053872;28;20021;-77
2022/04/06 06:01:43;;;;;;;5.30;3.13;;;10.60;99.90;;;;;;5052999;28;20028;-77
2022/04/06 06:04:09;;;;;;;6.25;3.55;;;10.60;99.90;;;;;;5054882;28;20025;-77
2022/04/06 06:06:35;;;;;;;5.75;3.08;;;10.60;99.90;;;;;;5053121;28;20028;-77
2022/04/06 06:09:01;;;;;;;6.82;3.25;;;10.70;99.90;;;;;;5053314;28;20028;-77
2022/04/06 06:11:26;;;;;;;4.30;3.20;;;10.70;99.90;;;;;;5052944;28;20025;-77
2022/04/06 06:13:52;;;;;;;5.53;3.25;;;10.70;99.90;;;;;;5054874;28;20450;-77
2022/04/06 06:16:18;;;;;;;4.07;2.83;;;10.60;99.90;;;;;;5053448;28;20111;-77
2022/04/06 06:18:43;;;;;;;3.80;2.80;;;10.70;99.90;;;;;;5053208;28;20032;-77
2022/04/06 06:21:09;;;;;;;3.80;2.55;;;10.70;99.90;;;;;;5053720;28;20017;-77
2022/04/06 06:23:34;;;;;;;6.10;2.88;;;10.70;99.90;;;;;;5052715;28;20056;-77
2022/04/06 06:26:01;;;;;;;5.28;2.75;;;10.70;99.90;;;;;;5054704;28;20382;-77
2022/04/06 06:28:27;;;;;;;5.55;2.65;;;10.80;99.90;;;;;;5054163;28;20021;-77
2022/04/06 06:30:53;;;;;;;3.70;2.28;;;10.70;99.90;;;;;;5053401;28;20133;-77
2022/04/06 06:33:18;;;;;;;3.13;2.47;;;10.80;99.90;;;;;;5053382;28;20107;-77
2022/04/06 06:35:45;;;;;;;6.57;2.75;;;10.80;99.90;;;;;;5053909;28;20120;-77
2022/04/06 06:38:11;;;;;;;3.78;2.55;;;10.80;99.90;;;;;;5053296;28;20025;-77
2022/04/06 06:40:37;;;;;;;5.15;2.47;;;10.80;99.90;;;;;;5052622;28;20032;-77
2022/04/06 06:43:03;;;;;;;2.40;2.20;;;10.80;99.90;;;;;;5054094;28;20413;-77
2022/04/06 06:45:28;;;;;;;5.43;2.67;;;10.80;99.90;;;;;;5053555;28;20090;-78
2022/04/06 06:47:54;;;;;;;4.80;2.30;;;10.80;99.90;;;;;;5054132;28;20440;-77
2022/04/06 06:50:20;;;;;;;4.65;2.15;;;10.90;99.90;;;;;;5053668;28;20406;-77
2022/04/06 06:52:46;;;;;;;3.42;2.15;;;10.90;99.90;;;;;;5052270;28;20079;-77
2022/04/06 06:55:12;;;;;;;2.95;1.85;;;10.90;99.90;;;;;;5052570;28;20041;-77
2022/04/06 06:57:37;;;;;;;3.15;1.80;;;11.00;99.90;;;;;;5052251;28;20032;-77
2022/04/06 07:00:04;;;;;;;2.95;2.05;;;11.00;99.90;;;;;;5052730;28;20021;-77
2022/04/06 07:02:30;;;;;;;4.00;2.10;;;11.00;99.90;;;;;;5053719;28;20070;-77
2022/04/06 07:04:56;;;;;;;6.68;2.58;;;11.00;99.90;;;;;;5052821;28;20124;-77
2022/04/06 07:07:21;;;;;;;4.35;2.10;;;11.10;99.90;;;;;;5052681;28;20108;-78
2022/04/06 07:09:47;;;;;;;3.80;2.03;;;11.00;99.90;;;;;;5053228;28;20036;-77
2022/04/06 07:12:12;;;;;;;3.88;1.70;;;11.10;99.90;;;;;;5056771;28;20033;-77
2022/04/06 07:14:38;;;;;;;3.53;1.67;;;11.10;99.90;;;;;;5057024;28;20021;-78
2022/04/06 07:17:04;;;;;;;2.25;1.90;;;11.20;99.90;;;;;;5048711;28;20381;-77
2022/04/06 07:19:30;;;;;;;2.42;1.65;;;11.20;99.90;;;;;;5065497;28;20024;-78
2022/04/06 07:21:56;;;;;;;4.72;1.50;;;11.20;99.90;;;;;;5055181;28;20127;-77
2022/04/06 07:24:21;;;;;;;3.55;1.38;;;11.30;99.90;;;;;;5080502;28;20048;-77
2022/04/06 07:26:47;;;;;;;2.75;1.67;;;11.40;99.90;;;;;;5078455;28;20042;-78
2022/04/06 07:29:15;;;;;;;4.53;1.60;;;11.40;99.90;;;;;;5053613;28;20025;-77
2022/04/06 07:31:42;;;;;;;2.85;1.42;;;11.50;99.90;;;;;;5068027;28;20380;-77
2022/04/06 07:34:08;;;;;;;1.92;1.25;;;11.60;99.90;;;;;;5078389;28;20024;-77
2022/04/06 07:36:34;;;;;;;6.53;1.33;;;11.60;99.90;;;;;;5078367;28;20039;-78
2022/04/06 07:39:02;;;;;;;3.08;1.45;;;11.60;99.90;;;;;;5057573;28;20028;-77
2022/04/06 07:41:28;;;;;;;3.13;1.48;;;11.70;99.90;;;;;;5067945;28;20079;-77
2022/04/06 07:43:54;;;;;;;4.40;1.90;;;11.70;99.90;;;;;;5075771;28;20111;-77
2022/04/06 07:46:19;;;;;;;4.43;2.08;;;11.80;99.90;;;;;;5062715;28;20533;-78
2022/04/06 07:48:45;;;;;;;3.15;1.60;;;11.80;99.90;;;;;;5082766;28;20078;-77
2022/04/06 07:51:11;;;;;;;4.78;2.30;;;11.90;99.90;;;;;;5073383;28;20021;-77
2022/04/06 07:53:36;;;;;;;2.97;2.10;;;11.90;99.90;;;;;;5086797;28;20481;-78
2022/04/06 07:56:02;;;;;;;3.92;2.10;;;11.90;99.90;;;;;;5076917;28;20107;-77
2022/04/06 07:58:28;;;;;;;4.45;2.05;;;11.90;99.90;;;;;;5061104;28;20074;-78
2022/04/06 08:00:53;;;;;;;3.25;2.00;;;11.90;99.90;;;;;;5069805;28;20028;-77
2022/04/06 08:03:19;;;;;;;2.33;1.80;;;11.90;99.90;;;;;;5076342;28;20080;-77
2022/04/06 08:05:45;;;;;;;5.30;2.15;;;11.90;99.90;;;;;;5060043;28;20024;-77
2022/04/06 08:08:10;;;;;;;3.17;1.90;;;11.90;99.90;;;;;;5085433;28;20106;-77
2022/04/06 08:10:36;;;;;;;3.58;2.50;;;11.90;99.90;;;;;;5074198;28;20143;-77
2022/04/06 08:13:02;;;;;;;4.97;2.17;;;11.80;99.90;;;;;;5056209;28;20028;-77
2022/04/06 08:15:28;;;;;;;5.30;2.30;;;11.80;99.90;;;;;;5090367;28;20040;-78
2022/04/06 08:17:54;;;;;;;4.05;2.40;;;11.80;99.90;;;;;;5061618;28;20020;-77
2022/04/06 08:20:21;;;;;;;3.80;2.25;;;11.70;99.90;;;;;;5066409;28;20070;-77
2022/04/06 08:22:49;;;;;;;3.20;2.33;;;11.70;99.90;;;;;;5064585;28;20474;-78
2022/04/06 08:25:16;;;;;;;3.33;2.25;;;11.70;99.90;;;;;;5057121;28;20040;-77
2022/04/06 08:27:42;;;;;;;3.47;2.10;;;11.60;99.90;;;;;;5069437;28;20017;-77
2022/04/06 08:30:10;;;;;;;4.60;2.50;;;11.70;99.90;;;;;;5060747;28;20029;-77
2022/04/06 08:32:37;;;;;;;3.97;2.28;;;11.80;99.90;;;;;;5060624;28;20028;-77
2022/04/06 08:35:03;;;;;;;4.03;2.05;;;11.70;99.90;;;;;;5069150;28;20040;-77
2022/04/06 08:37:32;;;;;;;3.25;2.17;;;11.80;99.90;;;;;;5071651;28;20381;-78
2022/04/06 08:39:59;;;;;;;3.63;2.15;;;11.70;99.90;;;;;;5052146;28;20029;-77
2022/04/06 08:42:25;;;;;;;4.07;2.20;;;11.80;99.90;;;;;;5062706;28;20031;-77
2022/04/06 08:44:52;;;;;;;4.00;2.30;;;11.80;99.90;;;;;;5058135;28;20025;-77
2022/04/06 08:47:18;;;;;;;3.67;2.28;;;11.70;99.90;;;;;;5068545;28;20036;-77
2022/04/06 08:49:45;;;;;;;3.13;2.47;;;11.70;99.90;;;;;;5056201;28;20025;-78
2022/04/06 08:52:11;;;;;;;4.40;2.20;;;11.70;99.90;;;;;;5063504;28;20485;-77
2022/04/06 08:54:38;;;;;;;3.23;2.30;;;11.80;99.90;;;;;;5062227;28;20020;-77
2022/04/06 08:57:05;;;;;;;5.38;2.25;;;11.70;99.90;;;;;;5068497;28;20153;-76
2022/04/06 08:59:32;;;;;;;4.43;2.33;;;11.70;99.90;;;;;;5070141;28;20040;-78
2022/04/06 09:01:58;;;;;;;3.42;2.30;;;11.70;99.90;;;;;;5058221;28;20029;-77
2022/04/06 09:04:24;;;;;;;2.40;1.80;;;11.70;99.90;;;;;;5060617;28;20021;-77
2022/04/06 09:06:51;;;;;;;2.80;2.03;;;11.70;99.90;;;;;;5051050;28;20087;-77
2022/04/06 09:09:21;;;;;;;4.50;1.80;;;11.70;99.90;;;;;;5056141;28;20068;-77
2022/04/06 09:11:47;;;;;;;2.95;2.00;;;11.70;99.90;;;;;;5055325;28;20029;-78
2022/04/06 09:14:13;;;;;;;5.60;2.20;;;11.70;99.90;;;;;;5061188;28;20381;-77
2022/04/06 09:16:38;;;;;;;3.65;1.70;;;11.70;99.90;;;;;;5062853;28;20430;-77
2022/04/06 09:19:13;;;;;;;3.10;2.10;;;11.80;99.90;;;;;;5053950;28;20426;-77
2022/04/06 09:21:45;;;;;;;7.60;2.17;;;11.80;99.90;;;;;;5049094;28;20031;-78
2022/04/06 09:24:23;;;;;;;2.45;1.52;;;11.70;99.90;;;;;;5049825;28;20053;-77
2022/04/06 09:26:59;;;;;;;3.90;1.65;;;11.70;99.90;;;;;;5065555;28;20032;-77
2022/04/06 09:29:24;;;;;;;2.28;1.75;;;11.70;99.90;;;;;;5071392;28;20025;-77
2022/04/06 09:31:51;;;;;;;3.45;1.95;;;11.70;99.90;;;;;;5066406;28;20023;-77
2022/04/06 09:34:21;;;;;;;2.80;1.92;;;11.70;99.90;;;;;;5061363;28;20416;-77
2022/04/06 09:36:47;;;;;;;6.60;2.30;;;11.80;99.90;;;;;;5057589;28;20090;-78
2022/04/06 09:39:13;;;;;;;3.00;1.85;;;11.80;99.90;;;;;;5057883;28;20033;-78
2022/04/06 09:41:59;;;;;;;4.03;2.17;;;12.10;99.90;;;;;;5066131;28;20028;-79
2022/04/06 09:50:26;;;;;;;5.88;2.00;;;12.50;99.90;;;;;;5046032;28;20035;-79
2022/04/06 09:52:56;;;;;;;5.53;2.20;;;12.50;99.90;;;;;;5058110;28;20021;-78
2022/04/06 09:55:22;;;;;;;2.67;2.30;;;12.60;99.90;;;;;;5067070;28;20465;-79
2022/04/06 09:57:52;;;;;;;2.20;1.70;;;12.60;99.90;;;;;;5055598;28;20028;-79
2022/04/06 10:00:25;;;;;;;3.30;2.20;;;12.70;99.90;;;;;;5061467;28;20025;-78
2022/04/06 10:03:01;;;;;;;3.00;2.20;;;12.80;99.90;;;;;;5062459;28;20035;-79
2022/04/06 10:05:28;;;;;;;2.78;2.05;;;12.90;99.90;;;;;;5067225;28;20032;-78
2022/04/06 10:07:55;;;;;;;3.15;2.10;;;12.90;99.90;;;;;;5056567;28;20028;-79
2022/04/06 10:10:23;;;;;;;3.50;2.15;;;13.00;99.90;;;;;;5059907;28;20451;-78
2022/04/06 10:12:49;;;;;;;3.50;2.00;;;12.90;99.90;;;;;;5071037;28;20033;-78
2022/04/06 10:15:17;;;;;;;2.78;2.00;;;13.00;99.90;;;;;;5048638;28;20116;-79
2022/04/06 10:17:42;;;;;;;3.97;2.10;;;13.00;99.90;;;;;;5069613;28;20024;-78
2022/04/06 10:20:43;;;;;;;4.28;1.92;;;13.20;99.90;;;;;;5063382;28;20048;-78
2022/04/06 10:23:58;;;;;;;2.17;1.38;;;13.20;99.90;;;;;;5065516;28;20480;-78
2022/04/06 10:26:43;;;;;;;5.55;1.95;;;13.20;99.50;;;;;;5038468;28;20427;-78
2022/04/06 10:29:09;;;;;;;3.00;1.90;;;13.30;99.90;;;;;;5055083;28;20087;-79
2022/04/06 10:31:34;;;;;;;2.97;1.73;;;13.20;99.80;;;;;;5067435;28;20021;-79
2022/04/06 10:34:23;;;;;;;3.00;2.00;;;13.20;99.70;;;;;;5056116;28;20031;-78
2022/04/06 10:37:07;;;;;;;3.40;1.85;;;13.20;99.80;;;;;;5055633;28;20068;-78
2022/04/06 10:39:53;;;;;;;3.53;1.90;;;13.20;99.80;;;;;;5057678;28;20029;-79
2022/04/06 10:42:32;;;;;;;4.18;2.10;;;13.30;99.90;;;;;;5061480;28;20032;-78
2022/04/06 10:44:57;;;;;;;5.35;2.15;;;13.40;99.20;;;;;;5065655;28;20021;-78
2022/04/06 10:47:29;;;;;;;3.92;1.65;;;13.30;99.50;;;;;;5054740;28;20533;-78
2022/04/06 10:50:15;;;;;;;6.20;2.10;;;13.30;99.70;;;;;;5065254;28;20028;-78
2022/04/06 10:52:43;;;;;;;4.15;2.08;;;13.30;99.20;;;;;;5061288;28;20508;-79
2022/04/06 10:55:21;;;;;;;4.15;1.88;;;13.40;99.10;;;;;;5054172;28;20523;-78
2022/04/06 10:57:57;;;;;;;5.60;2.20;;;13.40;99.00;;;;;;5039755;28;20029;-78
2022/04/06 11:00:24;;;;;;;3.95;1.95;;;13.50;99.30;;;;;;5059365;28;20059;-78
2022/04/06 11:02:50;;;;;;;3.67;1.90;;;13.60;98.50;;;;;;5060823;28;20063;-78
2022/04/06 11:05:44;;;;;;;3.47;2.20;;;13.60;98.10;;;;;;5065755;28;20123;-78
2022/04/06 11:11:46;;;;;;;2.85;2.20;;;13.90;96.90;;;;;;5066787;28;20077;-78
2022/04/06 11:14:26;;;;;;;4.13;2.00;;;14.00;96.30;;;;;;5057454;28;20056;-79
2022/04/06 11:16:52;;;;;;;4.72;1.92;;;14.10;96.60;;;;;;5054624;28;20390;-79
2022/04/06 11:19:18;;;;;;;4.03;1.95;;;13.90;95.80;;;;;;5066801;28;20095;-78
2022/04/06 11:21:52;;;;;;;4.65;2.08;;;13.80;96.20;;;;;;5053959;28;20025;-79
2022/04/06 11:24:28;;;;;;;3.75;1.95;;;13.80;96.30;;;;;;5059468;28;20502;-78
2022/04/06 11:26:54;;;;;;;4.50;2.20;;;14.00;95.80;;;;;;5062303;28;20032;-78
2022/04/06 11:29:26;;;;;;;2.88;1.80;;;14.20;95.50;;;;;;5052116;28;20025;-78
2022/04/06 11:32:06;;;;;;;2.60;1.50;;;14.20;94.10;;;;;;5062587;28;20056;-77
2022/04/06 11:34:39;;;;;;;3.35;1.50;;;14.30;93.20;;;;;;5061247;28;20035;-79
2022/04/06 11:37:07;;;;;;;3.13;1.80;;;14.50;92.50;;;;;;5052840;28;20043;-79
2022/04/06 11:39:34;;;;;;;3.97;1.60;;;14.60;92.80;;;;;;5056934;28;20024;-79
2022/04/06 11:42:04;;;;;;;2.92;1.70;;;14.60;92.70;;;;;;5063179;28;20029;-79
2022/04/06 11:44:32;;;;;;;3.83;1.85;;;14.60;93.10;;;;;;5059487;28;20119;-79
2022/04/06 11:46:58;;;;;;;2.95;1.60;;;14.50;92.90;;;;;;5053773;28;20488;-79
2022/04/06 11:49:26;;;;;;;4.00;1.60;;;14.50;92.90;;;;;;5065147;28;20047;-79
2022/04/06 11:51:56;;;;;;;3.20;1.70;;;14.30;92.70;;;;;;5055254;28;20143;-79
2022/04/06 11:54:22;;;;;;;3.28;1.48;;;14.10;93.00;;;;;;5059320;28;20047;-79
2022/04/06 11:56:55;;;;;;;1.95;1.42;;;14.30;93.10;;;;;;5062987;28;20535;-78
2022/04/06 11:59:22;;;;;;;2.58;1.40;;;14.40;93.00;;;;;;5050833;28;20470;-79
2022/04/06 12:01:50;;;;;;;3.75;1.70;;;14.60;93.00;;;;;;5049891;28;20025;-78
2022/04/06 12:04:21;;;;;;;2.63;1.55;;;14.80;92.40;;;;;;5048748;28;20027;-79
2022/04/06 12:06:47;;;;;;;6.90;1.90;;;14.90;91.40;;;;;;5050432;28;20120;-79
2022/04/06 12:09:13;;;;;;;2.58;1.67;;;14.90;91.30;;;;;;5054067;28;20037;-79
2022/04/06 12:11:42;;;;;;;2.33;1.45;;;14.90;91.20;;;;;;5064452;28;20079;-79
2022/04/06 12:14:10;;;;;;;2.90;1.38;;;15.00;90.60;;;;;;5056066;28;20719;-79
2022/04/06 12:16:38;;;;;;;2.38;1.40;;;15.30;90.90;;;;;;5057610;28;20035;-80
2022/04/06 12:19:08;;;;;;;1.60;1.23;;;15.60;87.50;;;;;;5065256;28;20024;-79
2022/04/06 12:21:43;;;;;;;2.28;1.10;;;15.60;86.40;;;;;;5052041;28;20020;-79
2022/04/06 12:24:09;;;;;;;3.70;1.60;;;15.80;84.10;;;;;;5060116;28;20041;-76
2022/04/06 12:26:45;;;;;;;3.45;1.40;;;15.90;83.40;;;;;;5048776;28;20033;-76
2022/04/06 12:29:15;;;;;;;4.15;1.38;;;16.20;82.00;;;;;;5050048;28;20378;-76
2022/04/06 12:31:42;;;;;;;2.13;1.42;;;16.20;81.30;;;;;;5047378;28;20028;-76
2022/04/06 12:34:09;;;;;;;1.83;1.30;;;16.20;80.70;;;;;;5051291;28;20025;-78
2022/04/06 12:36:35;;;;;;;2.40;1.60;;;16.20;81.50;;;;;;5050930;28;20029;-78
2022/04/06 12:39:13;;;;;;;4.13;1.50;;;16.20;77.60;;;;;;5051389;28;20021;-78
2022/04/06 12:41:59;;;;;;;4.18;1.55;;;15.90;78.70;;;;;;5051964;28;20358;-79
2022/04/06 12:44:30;;;;;;;3.17;1.40;;;15.90;79.60;;;;;;5051462;28;20024;-78
2022/04/06 12:46:56;;;;;;;3.75;1.80;;;15.70;80.60;;;;;;5051652;28;20029;-78
2022/04/06 12:49:37;;;;;;;2.15;1.60;;;15.80;82.40;;;;;;5046160;28;20159;-79
2022/04/06 12:52:09;;;;;;;5.97;1.40;;;16.10;81.00;;;;;;5060265;28;20028;-79
2022/04/06 12:54:35;;;;;;;;;;;16.30;80.00;;;;;;5053781;28;20754;-79
2022/04/06 12:57:10;;;;;;;3.33;1.95;;;16.40;78.10;;;;;;5058612;28;20368;-79
2022/04/06 12:59:39;;;;;;;3.17;1.85;;;16.40;77.20;;;;;;5073674;28;20392;-79
2022/04/06 13:02:05;;;;;;;3.58;1.90;;;16.30;77.40;;;;;;5058892;28;20021;-79